Data for 05/28/2005

Time Sea-Level Adjusted Pressure Absolute Pressure Temperature Relative Humidity Dew Point   
(mb) (inHg) (mb) (inHg) (C) (F) (%) (C) (F)
00:05 1018 30.06 847 25.01 13.3 56 37 -1 30.3
00:10 1018 30.06 847 25.01 13.3 56 36 -1.3 29.6
00:15 1018 30.06 847 25.01 13.5 56.3 36 -1.4 29.5
00:20 1017 30.03 847 25.01 13.4 56.1 36 -1.3 29.6
00:25 1017 30.03 847 25.01 13.3 55.9 36 -1.5 29.3
00:30 1018 30.06 847 25.01 13.4 56 36 -1.3 29.6
00:35 1018 30.06 847 25.01 13.2 55.7 37 -1.2 29.8
00:40 1017 30.03 847 25.01 13.1 55.5 36 -1.4 29.4
00:45 1017 30.03 847 25.01 13 55.4 37 -1.2 29.8
00:50 1018 30.06 847 25.01 12.9 55.3 37 -1.3 29.6
00:55 1017 30.03 847 25.01 13 55.3 37 -1.2 29.8
01:00 1017 30.03 847 25.01 12.8 55.1 38 -1.2 29.8
01:05 1017 30.03 847 25.01 12.7 54.9 38 -1.1 30.1
01:10 1017 30.03 847 25.01 12.5 54.6 39 -0.9 30.4
01:15 1017 30.03 847 25.01 12.2 54 40 -1 30.2
01:20 1018 30.06 847 25.01 12.1 53.8 40 -0.9 30.3
01:25 1018 30.06 847 25.01 12 53.6 41 -0.8 30.6
01:30 1017 30.03 847 25.01 11.9 53.5 41 -0.8 30.5
01:35 1017 30.03 847 25.01 11.9 53.5 41 -0.8 30.6
01:40 1017 30.03 847 25.01 11.9 53.3 41 -0.8 30.6
01:45 1017 30.03 847 25.01 11.8 53.2 42 -0.8 30.6
01:50 1018 30.06 847 25.01 11.6 52.9 43 -0.6 30.9
01:55 1017 30.03 847 25.01 11.4 52.4 44 -0.5 31.1
02:00 1017 30.03 847 25.01 11.2 52.1 44 -0.7 30.8
02:05 1017 30.03 847 25.01 11.1 51.9 44 -0.6 30.9
02:10 1017 30.03 847 25.01 10.9 51.6 44 -0.7 30.7
02:15 1017 30.03 847 25.01 10.9 51.6 44 -0.8 30.6
02:20 1017 30.03 847 25.01 10.8 51.5 44 -0.9 30.4
02:25 1017 30.03 847 25.01 10.8 51.5 44 -0.8 30.5
02:30 1017 30.03 847 25.01 10.7 51.2 45 -0.8 30.6
02:35 1017 30.03 847 25.01 10.6 51 45 -0.9 30.3
02:40 1017 30.03 847 25.01 10.5 50.9 45 -0.8 30.5
02:45 1017 30.03 847 25.01 10.4 50.7 45 -0.8 30.5
02:50 1017 30.03 847 25.01 10.3 50.6 46 -0.8 30.6
02:55 1017 30.03 847 25.01 10.2 50.3 46 -0.8 30.6
03:00 1017 30.03 847 25.01 10 50.1 47 -0.8 30.6
03:05 1017 30.03 847 25.01 9.8 49.6 47 -0.8 30.5
03:10 1017 30.03 847 25.01 9.8 49.6 48 -0.7 30.7
03:15 1017 30.03 847 25.01 9.7 49.5 48 -0.8 30.5
03:20 1018 30.06 847 25.01 9.9 49.8 47 -0.9 30.4
03:25 1018 30.06 847 25.01 9.8 49.7 48 -0.5 31.1
03:30 1017 30.03 847 25.01 9.6 49.2 50 -0.2 31.7
03:35 1017 30.03 847 25.01 9 48.3 54 0.2 32.3
03:40 1018 30.06 847 25.01 8.7 47.6 54 -0 32
03:45 1017 30.03 847 25.01 8.5 47.3 54 -0.3 31.5
03:50 1018 30.06 847 25.01 8.3 46.9 54 -0.4 31.3
03:55 1018 30.06 847 25.01 8.1 46.5 51 -1.4 29.6
04:00 1018 30.06 847 25.01 7.9 46.2 51 -1.6 29.1
04:05 1018 30.06 847 25.01 7.9 46.2 51 -1.7 29
04:10 1018 30.06 847 25.01 7.8 46.1 52 -1.4 29.5
04:15 1018 30.06 847 25.01 8 46.4 52 -1.2 29.9
04:20 1018 30.06 847 25.01 8 46.4 52 -1.3 29.7
04:25 1018 30.06 847 25.01 7.9 46.2 53 -1.1 30
04:30 1018 30.06 847 25.01 7.6 45.7 53 -1.5 29.4
04:35 1017 30.03 847 25.01 7.4 45.2 53 -1.5 29.3
04:40 1017 30.03 847 25.01 7.6 45.7 51 -1.9 28.6
04:45 1017 30.03 847 25.01 8 46.4 51 -1.4 29.4
04:50 1017 30.03 847 25.01 8.2 46.8 52 -1.1 30.1
04:55 1017 30.03 847 25.01 7.9 46.2 53 -0.9 30.3
05:00 1017 30.03 847 25.01 7.6 45.7 54 -1 30.2
05:05 1017 30.03 847 25.01 7.7 45.8 55 -0.9 30.4
05:10 1017 30.03 846 24.98 7.5 45.4 55 -0.9 30.4
05:15 1017 30.03 846 24.98 7.1 44.8 57 -0.8 30.6
05:20 1017 30.03 847 25.01 6.8 44.2 58 -0.8 30.6
05:25 1017 30.03 847 25.01 6.7 44.1 58 -1 30.2
05:30 1017 30.03 847 25.01 6.8 44.3 55 -1.5 29.3
05:35 1017 30.03 846 24.98 7.2 44.9 54 -1.6 29.1
05:40 1017 30.03 846 24.98 7.3 45.1 55 -1.1 30
05:45 1017 30.03 846 24.98 7 44.5 57 -1 30.1
05:50 1017 30.03 846 24.98 6.7 44 58 -1.1 30
05:55 1017 30.03 847 25.01 6.6 43.8 57 -1.4 29.5
06:00 1017 30.03 847 25.01 6.7 44.1 55 -1.6 29.2
06:05 1017 30.03 846 24.98 7.1 44.7 54 -1.7 29
06:10 1017 30.03 846 24.98 7.4 45.3 54 -1.4 29.5
06:15 1017 30.03 846 24.98 7.4 45.4 54 -1.3 29.6
06:20 1017 30.03 846 24.98 7.4 45.4 54 -1.2 29.8
06:25 1017 30.03 846 24.98 7.4 45.3 54 -1.3 29.6
06:30 1017 30.03 846 24.98 7.4 45.3 54 -1.2 29.9
06:35 1017 30.03 846 24.98 7.4 45.3 54 -1.3 29.6
06:40 1017 30.03 846 24.98 7.5 45.4 54 -1.2 29.9
06:45 1017 30.03 846 24.98 7.7 45.8 54 -1.1 30
06:50 1017 30.03 846 24.98 8 46.5 53 -1 30.2
06:55 1017 30.03 846 24.98 8.3 47 52 -1 30.2
07:00 1017 30.03 847 25.01 8.6 47.4 52 -0.7 30.7
07:05 1017 30.03 847 25.01 8.6 47.5 51 -1 30.3
07:10 1017 30.03 847 25.01 8.7 47.6 52 -0.5 31.1
07:15 1017 30.03 847 25.01 8.7 47.6 52 -0.6 30.9
07:20 1017 30.03 847 25.01 9.1 48.4 50 -0.8 30.6
07:25 1017 30.03 847 25.01 9.7 49.4 49 -0.5 31.1
07:30 1017 30.03 847 25.01 10.2 50.4 48 -0.3 31.4
07:35 1017 30.03 847 25.01 10.2 50.3 48 -0.3 31.5
07:40 1017 30.03 847 25.01 10.2 50.3 47 -0.7 30.8
07:45 1017 30.03 847 25.01 10.7 51.3 44 -0.9 30.3
07:50 1017 30.03 847 25.01 11.4 52.5 42 -0.9 30.3
07:55 1017 30.03 846 24.98 11.6 53 41 -1.1 30.1
08:00 1017 30.03 847 25.01 12 53.6 40 -1.1 30
08:05 1017 30.03 846 24.98 11.9 53.5 41 -0.8 30.6
08:10 1017 30.03 846 24.98 12.6 54.8 39 -0.8 30.5
08:15 1017 30.03 846 24.98 13.4 56.1 38 -0.6 30.9
08:20 1017 30.03 847 25.01 13.8 56.9 37 -0.6 31
08:25 1017 30.03 847 25.01 14.4 58 35 -0.8 30.6
08:30 1017 30.03 847 25.01 14.8 58.6 36 -0.2 31.7
08:35 1017 30.03 847 25.01 14 57.2 37 -0.4 31.3
08:40 1017 30.03 846 24.98 14.2 57.5 35 -0.9 30.3
08:45 1017 30.03 847 25.01 14.7 58.4 35 -0.7 30.8
08:50 1017 30.03 846 24.98 15.1 59.1 35 -0.1 31.8
08:55 1017 30.03 846 24.98 14.4 58 36 -0.3 31.5
09:00 1017 30.03 846 24.98 14.8 58.6 36 0.1 32.1
09:05 1017 30.03 846 24.98 15.5 59.8 35 0 32.1
09:10 1017 30.03 846 24.98 15.9 60.7 35 0.7 33.2
09:15 1017 30.03 846 24.98 16.1 60.9 34 0.5 32.8
09:20 1017 30.03 846 24.98 15.5 59.9 34 -0 32
09:25 1017 30.03 846 24.98 14.9 58.8 35 -0.3 31.4
09:30 1017 30.03 846 24.98 15 59 34 -0.7 30.7
09:35 1017 30.03 846 24.98 16 60.9 34 0.2 32.3
09:40 1017 30.03 846 24.98 16.7 62 31 -0.6 31
09:45 1017 30.03 846 24.98 16.8 62.3 31 -0.3 31.4
09:50 1017 30.03 846 24.98 17.2 62.9 31 0.1 32.2
09:55 1017 30.03 846 24.98 16.8 62.3 33 0.5 32.9
10:00 1017 30.03 846 24.98 16 60.8 34 0.2 32.3
10:05 1017 30.03 846 24.98 16.3 61.3 30 -1.1 30
10:10 1017 30.03 846 24.98 17.4 63.4 29 -0.5 31
10:15 1017 30.03 846 24.98 16.8 62.3 32 0.2 32.3
10:20 1017 30.03 846 24.98 17.1 62.7 31 -0.3 31.5
10:25 1017 30.03 846 24.98 17.8 64 29 -0.2 31.7
10:30 1017 30.03 846 24.98 18.3 64.9 28 -0.2 31.6
10:35 1017 30.03 846 24.98 17.3 63.2 31 0.3 32.6
10:40 1017 30.03 846 24.98 17.9 64.1 30 0.4 32.6
10:45 1017 30.03 846 24.98 17.7 63.9 31 0.3 32.6
10:50 1017 30.03 846 24.98 18 64.4 30 0.5 32.8
10:55 1017 30.03 846 24.98 18.1 64.5 30 0.3 32.6
11:00 1017 30.03 846 24.98 18.5 65.3 30 0.6 33
11:05 1017 30.03 846 24.98 18.7 65.6 31 1.4 34.6
11:10 1017 30.03 846 24.98 19.1 66.3 30 1.2 34.1
11:15 1017 30.03 846 24.98 19.2 66.6 31 1.6 34.9
11:20 1017 30.03 846 24.98 19.4 67 30 1.5 34.7
11:25 1017 30.03 846 24.98 19.4 67 30 1.4 34.5
11:30 1017 30.03 846 24.98 19.4 67 29 1.1 33.9
11:35 1017 30.03 846 24.98 19.9 67.9 28 0.8 33.5
11:40 1017 30.03 846 24.98 20.2 68.3 28 1.5 34.7
11:45 1017 30.03 846 24.98 20 68 28 1.3 34.4
11:50 1017 30.03 846 24.98 20.1 68.2 29 1.8 35.3
11:55 1016 30 846 24.98 20 67.9 29 1.6 34.9
12:00 1016 30 846 24.98 20.5 69 27 1.3 34.4
12:05 1016 30 846 24.98 20.1 68.2 29 1.5 34.7
12:10 1016 30 845 24.95 20.3 68.5 27 0.8 33.5
12:15 1016 30 845 24.95 19.9 67.8 29 1.3 34.3
12:20 1016 30 845 24.95 20.4 68.6 27 0.9 33.6
12:25 1016 30 845 24.95 20.2 68.4 28 1.1 34.1
12:30 1016 30 845 24.95 20.5 68.9 25 0.1 32.2
12:35 1016 30 845 24.95 20.7 69.3 27 1 33.9
12:40 1016 30 845 24.95 21 69.8 26 0.9 33.6
12:45 1016 30 845 24.95 21.5 70.7 24 0.1 32.1
12:50 1016 30 845 24.95 21.5 70.7 25 0.7 33.2
12:55 1016 30 845 24.95 21.7 71 24 0.7 33.2
13:00 1016 30 845 24.95 21.8 71.2 24 0.3 32.6
13:05 1016 30 845 24.95 21.8 71.2 24 0.6 33.1
13:10 1016 30 845 24.95 21.6 70.8 24 0.5 33
13:15 1016 30 845 24.95 21.7 71.1 24 0.4 32.8
13:20 1016 30 845 24.95 21.2 70.2 23 -0.7 30.7
13:25 1016 30 845 24.95 21.3 70.3 24 0.4 32.6
13:30 1016 30 845 24.95 21.8 71.3 19 -2.6 27.4
13:35 1016 30 845 24.95 22.4 72.4 19 -2.2 28.1
13:40 1016 30 845 24.95 22.5 72.6 20 -1.1 29.9
13:45 1016 30 845 24.95 22.6 72.8 20 -1.2 29.9
13:50 1016 30 845 24.95 22.7 72.9 18 -2.4 27.6
13:55 1016 30 845 24.95 22.6 72.7 19 -1.9 28.6
14:00 1016 30 845 24.95 22.4 72.4 21 -0.8 30.5
14:05 1016 30 845 24.95 22.2 71.9 22 -0.5 31.2
14:10 1016 30 845 24.95 23.3 73.9 18 -2.1 28.3
14:15 1016 30 845 24.95 23.4 74.1 18 -1.9 28.5
14:20 1016 30 845 24.95 22.6 72.8 19 -2 28.3
14:25 1015 29.97 845 24.95 22.7 72.8 17 -3.2 26.3
14:30 1015 29.97 845 24.95 23 73.4 15 -4.9 23.2
14:35 1015 29.97 845 24.95 22.6 72.6 18 -3.1 26.5
14:40 1015 29.97 845 24.95 22.1 71.7 16 -5.1 22.8
14:45 1015 29.97 845 24.95 21.7 71 15 -5.5 22.1
14:50 1015 29.97 845 24.95 22.2 72 17 -3.5 25.7
14:55 1015 29.97 845 24.95 22.8 73.1 16 -4.2 24.4
15:00 1015 29.97 845 24.95 23.1 73.6 15 -4.3 24.3
15:05 1015 29.97 845 24.95 23.2 73.7 16 -4 24.7
15:10 1015 29.97 845 24.95 23.5 74.3 17 -2.4 27.6
15:15 1015 29.97 845 24.95 23.8 74.8 16 -3.5 25.8
15:20 1015 29.97 845 24.95 23.8 74.8 18 -2 28.5
15:25 1015 29.97 845 24.95 23.9 75.1 17 -2.1 28.2
15:30 1015 29.97 845 24.95 23.8 74.8 19 -1 30.1
15:35 1015 29.97 845 24.95 23.2 73.8 20 -0.9 30.5
15:40 1015 29.97 845 24.95 23.6 74.5 18 -1.7 28.9
15:45 1015 29.97 845 24.95 23.6 74.4 19 -0.9 30.4
15:50 1015 29.97 845 24.95 23.1 73.7 19 -1.6 29.2
15:55 1015 29.97 845 24.95 23.9 74.9 18 -1.7 28.9
16:00 1015 29.97 845 24.95 23.7 74.7 20 -0.6 30.9
16:05 1015 29.97 845 24.95 23.9 75 18 -1.3 29.7
16:10 1015 29.97 845 24.95 24.4 75.9 16 -2.7 27.1
16:15 1015 29.97 844 24.92 24 75.2 18 -1.4 29.5
16:20 1015 29.97 844 24.92 24.1 75.3 18 -1.5 29.3
16:25 1015 29.97 844 24.92 24 75.1 18 -1.4 29.4
16:30 1015 29.97 844 24.92 23.5 74.4 19 -1.5 29.2
16:35 1015 29.97 844 24.92 23.6 74.5 18 -2.1 28.2
16:40 1015 29.97 844 24.92 23.9 75.1 18 -2 28.4
16:45 1015 29.97 844 24.92 23.6 74.4 18 -2.2 28.1
16:50 1015 29.97 844 24.92 22.8 73 19 -2.1 28.1
16:55 1015 29.97 844 24.92 23.6 74.5 18 -1.6 29.2
17:00 1015 29.97 844 24.92 24 75.1 16 -3.5 25.7
17:05 1015 29.97 844 24.92 24 75.1 16 -3.2 26.2
17:10 1015 29.97 844 24.92 24.1 75.3 16 -3.2 26.2
17:15 1015 29.97 844 24.92 24.2 75.6 16 -3.3 26.1
17:20 1015 29.97 844 24.92 23.9 75.1 16 -3.1 26.4
17:25 1015 29.97 844 24.92 22.5 72.6 18 -2.4 27.6
17:30 1015 29.97 844 24.92 23.2 73.8 16 -3.8 25.2
17:35 1015 29.97 844 24.92 23.5 74.2 15 -4 24.8
17:40 1015 29.97 844 24.92 23.3 73.9 20 -0.5 31.1
17:45 1015 29.97 844 24.92 22.4 72.4 25 1.8 35.2
17:50 1015 29.97 844 24.92 21.6 70.9 26 1.5 34.8
17:55 1015 29.97 844 24.92 21.2 70.2 27 1.6 34.9
18:00 1015 29.97 844 24.92 20.9 69.7 27 1.5 34.7
18:05 1015 29.97 844 24.92 20.9 69.7 27 1.2 34.2
18:10 1015 29.97 844 24.92 21.1 70 27 1.6 34.9
18:15 1015 29.97 844 24.92 20.7 69.3 28 1.9 35.4
18:20 1015 29.97 844 24.92 20.2 68.3 29 2 35.5
18:25 1015 29.97 844 24.92 19.7 67.5 30 2 35.6
18:30 1015 29.97 844 24.92 19.2 66.5 31 1.9 35.5
18:35 1015 29.97 844 24.92 19 66.2 31 1.5 34.7
18:40 1015 29.97 844 24.92 18.8 65.8 31 1.4 34.5
18:45 1015 29.97 844 24.92 18.5 65.4 31 1.3 34.4
18:50 1015 29.97 844 24.92 18.6 65.4 31 1.4 34.5
18:55 1015 29.97 844 24.92 18.3 65 31 1.2 34.2
19:00 1015 29.97 844 24.92 18 64.4 32 1.4 34.5
19:05 1015 29.97 844 24.92 17.8 64 33 1.3 34.4
19:10 1015 29.97 844 24.92 17.5 63.5 33 1 33.7
19:15 1015 29.97 844 24.92 17.4 63.2 33 1 33.8
19:20 1015 29.97 844 24.92 17.3 63.2 33 1.1 33.9
19:25 1015 29.97 844 24.92 17.3 63.1 33 1.1 34
19:30 1015 29.97 844 24.92 17.2 62.9 33 1 33.8
19:35 1015 29.97 844 24.92 17.1 62.7 34 1 33.9
19:40 1015 29.97 844 24.92 17.1 62.7 33 0.9 33.7
19:45 1015 29.97 845 24.95 17 62.6 33 0.9 33.6
19:50 1015 29.97 844 24.92 16.8 62.3 34 0.8 33.5
19:55 1015 29.97 844 24.92 16.7 62.1 34 1 33.7
20:00 1015 29.97 845 24.95 16.5 61.6 35 1.1 34
20:05 1015 29.97 845 24.95 16.3 61.4 35 0.9 33.6
20:10 1015 29.97 845 24.95 16.2 61.2 36 1.1 33.9
20:15 1015 29.97 844 24.92 16.1 61 36 1.1 33.9
20:20 1015 29.97 845 24.95 16.1 60.9 37 1.3 34.4
20:25 1015 29.97 845 24.95 15.9 60.7 37 1.4 34.5
20:30 1016 30 845 24.95 15.8 60.4 37 1.1 34
20:35 1015 29.97 845 24.95 15.6 60.1 37 0.9 33.6
20:40 1016 30 845 24.95 15.5 59.9 37 1.1 33.9
20:45 1016 30 845 24.95 15.3 59.6 37 0.9 33.6
20:50 1016 30 845 24.95 15.1 59.2 38 1 33.8
20:55 1016 30 845 24.95 15 59.1 37 0.7 33.3
21:00 1016 30 845 24.95 14.9 58.7 37 0.4 32.7
21:05 1016 30 845 24.95 14.8 58.6 38 0.8 33.5
21:10 1016 30 845 24.95 14.6 58.2 38 0.4 32.8
21:15 1016 30 845 24.95 14.5 58.1 38 0.5 32.8
21:20 1016 30 845 24.95 14.5 58 38 0.4 32.8
21:25 1016 30 845 24.95 14.4 57.9 38 0.5 32.9
21:30 1016 30 845 24.95 14.3 57.7 38 0.4 32.8
21:35 1016 30 845 24.95 14.2 57.5 38 0.3 32.5
21:40 1016 30 846 24.98 14.1 57.4 38 0.2 32.3
21:45 1016 30 846 24.98 14.1 57.4 39 0.3 32.6
21:50 1016 30 846 24.98 14 57.2 39 0.2 32.4
21:55 1016 30 846 24.98 14 57.1 39 0.3 32.5
22:00 1017 30.03 846 24.98 13.9 56.9 40 0.4 32.7
22:05 1017 30.03 846 24.98 13.9 56.9 39 0.3 32.5
22:10 1017 30.03 846 24.98 13.7 56.6 40 0.4 32.7
22:15 1017 30.03 846 24.98 13.5 56.3 40 0.2 32.4
22:20 1017 30.03 846 24.98 13.6 56.4 39 -0 32
22:25 1017 30.03 846 24.98 13.5 56.2 41 0.4 32.8
22:30 1017 30.03 846 24.98 13.2 55.8 41 0.3 32.5
22:35 1017 30.03 846 24.98 13.1 55.6 41 0.3 32.5
22:40 1017 30.03 846 24.98 13 55.3 41 0.2 32.4
22:45 1017 30.03 846 24.98 12.9 55.2 42 0.3 32.5
22:50 1017 30.03 846 24.98 12.8 55.1 41 -0 32
22:55 1017 30.03 846 24.98 12.9 55.1 41 -0.1 31.9
23:00 1017 30.03 846 24.98 12.9 55.2 42 0.3 32.6
23:05 1017 30.03 846 24.98 12.7 54.9 41 -0 31.9
23:10 1017 30.03 846 24.98 12.8 55.1 41 -0.1 31.7
23:15 1017 30.03 846 24.98 12.8 55 42 0.1 32.2
23:20 1017 30.03 846 24.98 12.6 54.7 42 0.1 32.3
23:25 1017 30.03 846 24.98 12.5 54.5 43 0.3 32.5
23:30 1017 30.03 846 24.98 12.4 54.3 43 0.2 32.3
23:35 1017 30.03 846 24.98 12.3 54.1 43 0.2 32.4
23:40 1017 30.03 846 24.98 12.2 54 43 -0.1 31.9
23:45 1017 30.03 846 24.98 12.4 54.3 43 0.2 32.3
23:50 1017 30.03 846 24.98 12.4 54.3 43 0.1 32.2
23:55 1017 30.03 846 24.98 12.5 54.4 43 0.2 32.4
24:00 1017 30.03 847 25.01 12.4 54.4 43 0.2 32.4